DLH125 LIRP-LIEE
Flight info
| Callsign | DLH125 |
|---|---|
| Flight time | N/A |
| Altitude | 21000 |
| Route | DOCM6B DOCME M729 ELB NEMIT BATOX ALEDI M126 LEDRO LEDR1A |
| Aircraft | A320/M-V/N |
Departure
| Time | N/A |
|---|---|
| Airport | Pisa International Airport (LIRP) |
Arrival
| Time | 2026-05-03 20:37 |
|---|---|
| Airport | Cagliari Elmas Airport (LIEE) |
| Time | Latitude | Longitude | Altitude | Speed | Heading |
|---|---|---|---|---|---|
| 2026-05-03 20:15 | 40.46699 | 10.07972 | 30133 ft | 456 kts | 187° |
| 2026-05-03 20:15 | 40.40360 | 10.07334 | 30121 ft | 458 kts | 187° |
| 2026-05-03 20:16 | 40.34035 | 10.06694 | 30125 ft | 459 kts | 187° |
| 2026-05-03 20:16 | 40.27645 | 10.06048 | 30131 ft | 461 kts | 187° |
| 2026-05-03 20:17 | 40.21253 | 10.05413 | 30136 ft | 461 kts | 187° |
| 2026-05-03 20:17 | 40.14852 | 10.04767 | 30140 ft | 461 kts | 187° |
| 2026-05-03 20:18 | 40.08459 | 10.04125 | 30144 ft | 461 kts | 187° |
| 2026-05-03 20:18 | 40.02055 | 10.03480 | 30142 ft | 461 kts | 187° |
| 2026-05-03 20:19 | 39.95659 | 10.02834 | 29628 ft | 461 kts | 187° |
| 2026-05-03 20:19 | 39.92438 | 10.02511 | 28298 ft | 467 kts | 187° |
| 2026-05-03 20:19 | 39.89172 | 10.02183 | 27007 ft | 473 kts | 187° |
| 2026-05-03 20:19 | 39.85872 | 10.01854 | 25764 ft | 478 kts | 187° |
| 2026-05-03 20:20 | 39.82550 | 10.01523 | 24600 ft | 480 kts | 187° |
| 2026-05-03 20:20 | 39.79228 | 10.01194 | 23738 ft | 476 kts | 187° |
| 2026-05-03 20:20 | 39.75945 | 10.00871 | 22826 ft | 470 kts | 187° |
| 2026-05-03 20:20 | 39.72711 | 10.00553 | 22044 ft | 462 kts | 187° |
| 2026-05-03 20:21 | 39.69531 | 10.00240 | 21398 ft | 454 kts | 186° |
| 2026-05-03 20:21 | 39.66444 | 9.99935 | 21104 ft | 438 kts | 186° |
| 2026-05-03 20:21 | 39.63436 | 9.99617 | 20541 ft | 429 kts | 188° |
| 2026-05-03 20:21 | 39.60579 | 9.98706 | 19936 ft | 420 kts | 204° |
| 2026-05-03 20:22 | 39.58062 | 9.96873 | 19303 ft | 412 kts | 219° |
| 2026-05-03 20:22 | 39.55950 | 9.94403 | 18665 ft | 407 kts | 224° |
| 2026-05-03 20:22 | 39.53913 | 9.91873 | 17964 ft | 404 kts | 224° |
| 2026-05-03 20:22 | 39.51896 | 9.89356 | 17286 ft | 401 kts | 225° |
| 2026-05-03 20:23 | 39.49910 | 9.86867 | 16503 ft | 392 kts | 225° |
| 2026-05-03 20:23 | 39.47962 | 9.84431 | 15348 ft | 386 kts | 224° |
| 2026-05-03 20:23 | 39.46072 | 9.82071 | 14274 ft | 380 kts | 224° |
| 2026-05-03 20:23 | 39.44187 | 9.79716 | 13139 ft | 373 kts | 224° |
| 2026-05-03 20:24 | 39.42928 | 9.78147 | 12336 ft | 370 kts | 223° |
| 2026-05-03 20:24 | 39.40499 | 9.75127 | 10829 ft | 363 kts | 223° |
| 2026-05-03 20:24 | 39.38692 | 9.72882 | 9734 ft | 358 kts | 223° |
| 2026-05-03 20:24 | 39.36968 | 9.70740 | 9425 ft | 329 kts | 223° |
| 2026-05-03 20:25 | 39.35388 | 9.68778 | 9288 ft | 301 kts | 223° |
| 2026-05-03 20:25 | 39.33918 | 9.66957 | 9163 ft | 287 kts | 223° |
| 2026-05-03 20:25 | 39.32974 | 9.65787 | 9040 ft | 281 kts | 223° |
| 2026-05-03 20:25 | 39.31573 | 9.64054 | 8715 ft | 277 kts | 223° |
| 2026-05-03 20:26 | 39.30184 | 9.62339 | 8332 ft | 275 kts | 223° |
| 2026-05-03 20:26 | 39.28799 | 9.60630 | 7949 ft | 274 kts | 223° |
| 2026-05-03 20:26 | 39.27423 | 9.58932 | 7558 ft | 273 kts | 223° |
| 2026-05-03 20:26 | 39.26053 | 9.57240 | 7170 ft | 272 kts | 223° |
| 2026-05-03 20:27 | 39.24691 | 9.55558 | 6781 ft | 271 kts | 223° |
| 2026-05-03 20:27 | 39.23335 | 9.53881 | 6390 ft | 269 kts | 223° |
| 2026-05-03 20:27 | 39.21988 | 9.52216 | 5987 ft | 268 kts | 223° |
| 2026-05-03 20:27 | 39.20644 | 9.50558 | 5585 ft | 266 kts | 223° |
| 2026-05-03 20:28 | 39.19311 | 9.48918 | 5188 ft | 264 kts | 223° |
| 2026-05-03 20:28 | 39.17983 | 9.47287 | 4816 ft | 262 kts | 223° |
| 2026-05-03 20:28 | 39.16690 | 9.45700 | 4457 ft | 259 kts | 223° |
| 2026-05-03 20:28 | 39.15387 | 9.44098 | 4069 ft | 257 kts | 221° |
| 2026-05-03 20:29 | 39.14128 | 9.42548 | 3944 ft | 245 kts | 222° |
| 2026-05-03 20:29 | 39.12923 | 9.41065 | 3819 ft | 235 kts | 221° |
| 2026-05-03 20:29 | 39.11768 | 9.39643 | 3694 ft | 225 kts | 221° |
| 2026-05-03 20:29 | 39.10659 | 9.38283 | 3562 ft | 216 kts | 221° |
| 2026-05-03 20:30 | 39.09577 | 9.36958 | 3434 ft | 214 kts | 220° |
| 2026-05-03 20:30 | 39.08495 | 9.35633 | 3309 ft | 215 kts | 220° |
| 2026-05-03 20:30 | 39.07415 | 9.34308 | 3182 ft | 214 kts | 220° |
| 2026-05-03 20:30 | 39.06349 | 9.32966 | 3056 ft | 213 kts | 226° |
| 2026-05-03 20:31 | 39.05726 | 9.31264 | 2928 ft | 213 kts | 259° |
| 2026-05-03 20:31 | 39.05863 | 9.29402 | 2815 ft | 210 kts | 291° |
| 2026-05-03 20:31 | 39.06589 | 9.27793 | 2820 ft | 208 kts | 299° |
| 2026-05-03 20:31 | 39.07277 | 9.26161 | 2821 ft | 207 kts | 296° |
| 2026-05-03 20:32 | 39.08014 | 9.24576 | 2809 ft | 207 kts | 315° |
| 2026-05-03 20:32 | 39.09239 | 9.23637 | 2833 ft | 207 kts | 334° |
| 2026-05-03 20:32 | 39.10400 | 9.22547 | 2826 ft | 208 kts | 317° |
| 2026-05-03 20:32 | 39.11455 | 9.21280 | 2817 ft | 208 kts | 317° |
| 2026-05-03 20:33 | 39.12528 | 9.20022 | 2813 ft | 209 kts | 318° |
| 2026-05-03 20:33 | 39.13608 | 9.18772 | 2744 ft | 209 kts | 318° |
| 2026-05-03 20:33 | 39.14688 | 9.17525 | 2529 ft | 206 kts | 319° |
| 2026-05-03 20:33 | 39.15745 | 9.16306 | 2251 ft | 202 kts | 318° |
| 2026-05-03 20:34 | 39.16783 | 9.15107 | 1983 ft | 199 kts | 319° |
| 2026-05-03 20:34 | 39.17803 | 9.13928 | 1709 ft | 194 kts | 319° |
| 2026-05-03 20:34 | 39.18782 | 9.12797 | 1450 ft | 184 kts | 319° |
| 2026-05-03 20:34 | 39.19700 | 9.11734 | 1216 ft | 172 kts | 320° |
| 2026-05-03 20:35 | 39.20571 | 9.10728 | 988 ft | 164 kts | 320° |
| 2026-05-03 20:35 | 39.21406 | 9.09762 | 779 ft | 158 kts | 321° |
| 2026-05-03 20:35 | 39.22208 | 9.08834 | 588 ft | 153 kts | 318° |
| 2026-05-03 20:35 | 39.22978 | 9.07943 | 378 ft | 148 kts | 316° |
| 2026-05-03 20:36 | 39.23742 | 9.07059 | 192 ft | 146 kts | 316° |
| 2026-05-03 20:36 | 39.24498 | 9.06189 | 47 ft | 143 kts | 315° |
| 2026-05-03 20:36 | 39.25188 | 9.05375 | 20 ft | 118 kts | 320° |
| 2026-05-03 20:36 | 39.25677 | 9.04812 | 21 ft | 75 kts | 318° |
| 2026-05-03 20:37 | 39.25981 | 9.04460 | 19 ft | 37 kts | 319° |
| 2026-05-03 20:37 | 39.26089 | 9.04389 | 20 ft | 14 kts | 17° |
| 2026-05-03 20:37 | 39.26128 | 9.04481 | 21 ft | 12 kts | 89° |
| 2026-05-03 20:37 | 39.26109 | 9.04589 | 22 ft | 13 kts | 120° |
| 2026-05-03 20:38 | 39.26036 | 9.04679 | 20 ft | 16 kts | 138° |
| 2026-05-03 20:38 | 39.25947 | 9.04781 | 20 ft | 18 kts | 138° |
| 2026-05-03 20:38 | 39.25837 | 9.04906 | 20 ft | 25 kts | 139° |
| 2026-05-03 20:38 | 39.25699 | 9.05062 | 20 ft | 27 kts | 139° |
| 2026-05-03 20:39 | 39.25553 | 9.05226 | 20 ft | 29 kts | 138° |
| 2026-05-03 20:39 | 39.25428 | 9.05408 | 19 ft | 25 kts | 117° |
| 2026-05-03 20:39 | 39.25386 | 9.05597 | 19 ft | 19 kts | 115° |
| 2026-05-03 20:39 | 39.25345 | 9.05698 | 19 ft | 11 kts | 58° |
| 2026-05-03 20:40 | 39.25395 | 9.05767 | 19 ft | 10 kts | 49° |
| 2026-05-03 20:40 | 39.25366 | 9.05821 | 19 ft | 9 kts | 150° |
| 2026-05-03 20:40 | 39.25354 | 9.05830 | 19 ft | 0 kts | 150° |